Saint Médard d'Aunis (17)                   Décembre 2012                       
  Température (°C) - Abri Young à ventilation mécanique 43502 Humidité Vent (km/h) Précipitations (mm) Pression (hPa) Divers  
Date Maxi Mini Moy de 1440 relevés Moy (tx+tn)/2 Index chaleur moyen Index chaleur maxi Froid dû au vent moy  Froid dû au vent mini/1min   Amplitude (Tx-Tn) Tx OMM/1min Tn OMM/1min Tm OMM/1min Relative maxi Relative mini Relative moy de 1440 relevés Relative moy (hx+hn)/2 Point de rosée maxi Point de rosée mini Point de rosée moy 1440 relevés Vent moy maxi (10min) Vent  moyen (24h) Direction dominante Rafales (km/h) maxi Direction rafale maxi Rafales moy (24h) Total du jour (mm) Durée en heures et dixièmes Intensité maxi sur 1 min (mm/h) Maxi Mini Moy de 1440 relevés Moy (px+pn)/2 Variation Epaisseur neige (cm) Remarques diverses  
01/12/2012 2,5 -2,1 0,35 0,20 0,31 2,4 -0,41 -4,6 4,6 2,4 -2,1 0,15 97% 93% 95,4% 95,0% 2,0 -3,0 -0,30 10,50 3,08 N 12,9 N 4,72 0,2 0,1 12,0 1022,2 1015,8 1019,20 1019,00 6,4   Ciel 0/8 à 8/8, brouillard  
02/12/2012 10,3 -0,6 4,90 4,85 4,98 10,6 3,99 -3,9 10,9 10,2 -0,6 4,80 99% 93% 96,4% 96,0% 10,0 -1,1 4,38 17,86 5,17 S 27,4 NNE 7,05 2,6 0,8 12,0 1022,2 1020,3 1021,00 1021,25 1,9   Brouillard, ciel 4/8 à 8/8 le matin, pluie, entre 6/8 et 8/8 l'après-midi  
03/12/2012 14,2 6,5 11,53 10,35 11,63 14,1 8,12 5,8 7,7 14,1 6,6 10,35 98% 80% 91,9% 89,0% 11,8 6,0 10,23 41,51 25,31 W 57,9 W 30,72 8,0 2,6 36,0 1022,4 1013,5 1019,41 1017,95 8,9   Ciel entre 5/8 et 8/8 le matin, averses, 8/8 ensuite, pluie  
04/12/2012 10,9 4,2 7,52 7,55 7,46 10,6 4,68 0,9 6,7 10,8 4,3 7,55 93% 66% 83,5% 79,5% 7,3 2,4 4,86 37,17 15,95 WNW 56,3 WNW 20,30 9,0 2,8 36,0 1017,2 1011,9 1014,78 1014,55 5,3   Ciel entre 2/8 et 8/8 le matin, entre 6/8 et 8/8 l'après-midi, averses, grêle  
05/12/2012 10,6 1,7 6,36 6,15 6,26 10,3 3,65 -1,4 8,9 10,6 1,7 6,15 95% 64% 82,6% 79,5% 6,6 0,2 3,53 26,89 14,07 NW 40,2 NW 17,84 2,8 0,8 12,0 1020,6 1009,3 1013,05 1014,95 11,3   Ciel entre 3/8 et 8/8 le matin, averses, 4/8 à 2/8 l'après-midi  
06/12/2012 6,6 -3,1 1,33 1,75 1,22 6,3 -0,17 -3,1 9,7 6,6 -3,1 1,75 96% 69% 87,7% 82,5% 3,1 -4,0 -0,54 15,46 5,91 SSE 24,1 SSE 7,85 0,2 0,1 12,0 1023,5 1014,5 1020,52 1019,00 9,0   Brouillard, ciel 3/8 à 5/8  
07/12/2012 11,1 2,0 7,00 6,55 6,84 10,7 3,44 -2,2 9,1 11,1 2,1 6,60 96% 55% 78,1% 75,5% 8,1 -0,4 3,33 30,92 19,70 NW 48,3 WNW 25,76 4,4 0,8 36,0 1017,5 1007,7 1012,32 1012,60 9,8   Ciel entre 2/8 et 8/8 le matin, averses, entre 2/8 et 6/8 l'après-midi  
08/12/2012 9,6 -0,6 5,48 4,50 5,33 9,2 2,92 -1,9 10,2 9,4 -0,6 4,40 92% 64% 80,6% 78,0% 4,8 -2,2 2,35 21,06 12,38 N 35,4 NW 15,99 0,0 0,0 0,0 1031,5 1017,5 1025,61 1024,50 14,0   Ciel entre 3/8 et 7/8  
09/12/2012 7,1 -2,9 2,63 2,10 2,49 6,7 1,85 -3,6 10,0 7,1 -2,9 2,10 95% 61% 84,4% 78,0% 4,2 -3,9 0,15 15,14 4,47 SW 20,9 SSW 6,06 0,2 0,1 12,0 1031,6 1024,6 1028,98 1028,10 7,0   Ciel 0/8 à 2/8 le matin, 2/8 à 5/8 l'après-midi, 6/8 le soir  
10/12/2012 9,9 -0,6 5,85 4,65 5,81 9,9 4,31 -2,6 10,5 9,8 -0,4 4,70 95% 62% 86,6% 78,5% 8,0 -1,7 3,71 18,50 8,24 N 27,4 NNW 10,63 1,0 0,4 12,0 1026,1 1022,4 1023,76 1024,25 3,7   Ciel entre 5/8 et 8/8 le matin, 7/8 à 1/8 ensuite  
11/12/2012 5,4 -3,2 0,79 1,10 0,69 5,2 -1,29 -5,3 8,6 5,4 -3,1 1,15 94% 77% 88,9% 85,5% 2,2 -4,2 -0,87 14,82 6,94 ENE 22,5 E 9,56 0,2 0,1 12,0 1028,2 1025,9 1027,07 1027,05 2,3   Ciel 2/8 le matin, entre 2/8 et 5/8 l'après-midi  
12/12/2012 1,0 -4,9 -1,38 -1,95 -1,54 0,7 -3,32 -7,9 5,9 0,9 -4,8 -1,95 91% 73% 81,4% 82,0% -2,7 -6,6 -4,19 10,02 5,69 E 17,7 SE 8,44 0,0 0,0 0,0 1026,2 1010,2 1017,87 1018,20 16,0   Ciel 2/8 à 6/8 le matin, 6/8 à 8/8 l'après-midi  
13/12/2012 7,9 0,9 5,29 4,40 5,32 8,1 1,74 -3,3 7,0 7,9 1,0 4,45 97% 75% 91,1% 86,0% 7,4 -2,9 3,94 28,67 17,30 SSE 38,6 SSE 22,40 16,0 5,1 12,0 1010,2 1000,9 1005,05 1005,55 9,3   Ciel entre 7/8 et 8/8, averses  
14/12/2012 12,8 7,9 11,00 10,35 11,10 12,7 7,23 3,7 4,9 12,8 7,9 10,35 98% 79% 91,1% 88,5% 11,1 7,1 9,57 46,19 26,63 SSW 69,2 S 35,37 15,8 5,2 24,0 1001,1 993,8 996,77 997,45 7,3   Ciel 8/8, pluie  
15/12/2012 13,7 8,3 10,84 11,00 10,84 13,5 7,38 3,4 5,4 13,7 8,3 11,00 93% 78% 85,2% 85,5% 10,4 6,5 8,44 42,80 23,36 WSW 66,0 W 29,99 6,0 1,5 24,0 1012,5 999,9 1006,47 1006,20 12,6   Ciel entre 5/8 et 8/8, averses, orages, grêle  
16/12/2012 12,9 8,8 10,66 10,85 10,73 12,8 7,53 5,3 4,1 12,9 8,8 10,85 94% 79% 87,7% 86,5% 10,4 6,4 8,69 41,84 20,74 WSW 61,2 W 25,89 15,2 2,8 48,0 1014,0 1010,2 1012,23 1012,10 3,8   Ciel entre 6/8 et 8/8, averses, orages, grêle  
17/12/2012 13,2 6,4 9,91 9,80 9,92 12,9 6,89 3,9 6,8 13,2 6,6 9,90 94% 75% 85,2% 84,5% 9,5 5,3 7,52 37,33 19,38 W 54,7 NW 23,44 7,0 1,6 48,0 1019,1 1012,2 1015,28 1015,65 6,9   Ciel 5/8 à 8/8 le matin, averses, grêle, entre 2/8 et 6/8 ensuite  
18/12/2012 12,3 4,9 8,25 8,60 8,28 11,9 7,54 2,7 7,4 12,2 5,0 8,60 97% 68% 88,9% 82,5% 9,1 3,9 6,45 21,07 5,51 W 35,4 WNW 7,09 0,4 0,2 12,0 1022,0 1018,9 1020,69 1020,45 3,1   Ciel entre 3/8 et 6/8  
19/12/2012 12,4 8,0 9,72 10,20 9,94 12,6 7,57 4,8 4,4 12,4 8,1 10,25 98% 90% 95,6% 94,0% 11,9 6,5 9,05 19,94 13,69 SSE 30,6 SE 18,00 3,4 1,4 12,0 1020,9 1012,6 1017,87 1016,75 8,3   Ciel 8/8, pluie intermittente, Brouillard le soir  
20/12/2012 13,4 8,5 10,68 10,95 10,76 13,3 7,69 5,4 4,9 13,4 8,7 11,05 97% 78% 88,7% 87,5% 11,6 7,1 8,87 35,88 20,22 WSW 51,5 WSW 25,36 4,6 1,8 12,0 1014,4 1008,1 1011,18 1011,25 6,3   Ciel entre 3/8 et 8/8, averses le matin  
21/12/2012 11,0 7,2 9,23 9,10 9,45 11,0 8,37 5,7 3,8 10,9 7,3 9,10 98% 87% 94,7% 92,5% 9,7 6,7 8,42 24,90 6,99 SSE 33,8 WSW 9,42 12,6 4,4 12,0 1022,4 1011,2 1016,05 1016,80 11,2   Ciel entre 7/8 et 8/8, pluie le matin  
22/12/2012 14,5 8,3 11,86 11,40 12,03 14,4 8,96 5,5 6,2 14,5 8,4 11,45 98% 84% 95,5% 91,0% 13,2 7,9 11,16 37,00 21,04 WSW 51,5 WSW 26,65 3,4 1,4 12,0 1021,9 1017,8 1019,12 1019,85 4,1   Ciel 8/8, pluie, bruine, 6/8 le soir  
23/12/2012 15,7 5,5 10,45 10,60 10,60 15,6 9,69 4,2 10,2 15,7 5,6 10,65 98% 78% 92,3% 88,0% 12,6 5,0 9,21 15,78 7,34 SSW 24,1 SSW 9,78 0,4 0,2 12,0 1019,6 1013,9 1017,65 1016,75 5,7   Ciel 5/8 à 3/8, voilé, brouillard le soir  
24/12/2012 13,7 7,6 10,54 10,65 10,58 13,7 8,24 4,8 6,1 13,7 7,7 10,70 98% 78% 88,1% 88,0% 11,7 6,7 8,62 27,85 15,45 SSE 43,5 S 19,87 0,2 0,1 12,0 1013,9 1005,5 1008,68 1009,70 8,4   Ciel entre 6/8 et 7/8, 8/8 le soir  
25/12/2012 13,4 7,4 10,53 10,40 10,61 13,2 7,73 5,7 6,0 13,4 7,6 10,50 95% 76% 88,6% 85,5% 10,6 6,0 8,70 34,44 18,32 WSW 59,5 W 22,98 4,4 1,7 12,0 1018,0 1006,5 1011,26 1012,25 11,5   Ciel 7/8 à 8/8 puis 1/8, pluie le matin, entre 3/8 et 7/8 ensuite, averses  
26/12/2012 12,9 5,5 10,37 9,20 10,40 12,7 7,48 3,2 7,4 12,9 5,7 9,30 95% 78% 88,6% 86,5% 11,3 4,8 8,53 37,33 19,37 WSW 54,7 WSW 23,86 1,4 0,5 12,0 1023,6 1017,7 1021,20 1020,65 5,9   Ciel 4/8 à 6/8 le matin, 6/8 à 8/8 l'après-midi, pluie le soir  
27/12/2012 13,9 8,7 11,57 11,30 11,57 13,7 7,68 5,7 5,2 13,8 8,7 11,25 96% 71% 86,5% 83,5% 12,1 6,3 9,36 53,75 31,08 WNW 80,5 WNW 38,27 8,2 1,9 72,0 1030,4 1016,9 1022,00 1023,65 13,5   Ciel entre 3/8 et 8/8, pluie, averses  
28/12/2012 13,8 8,2 11,12 11,00 11,30 13,8 9,70 5,7 5,6 13,7 8,2 10,95 97% 89% 93,9% 93,0% 12,4 7,6 10,17 20,74 11,36 SW 32,2 SW 14,83 0,2 0,1 12,0 1030,4 1022,9 1028,18 1026,65 7,5   Ciel entre 5/8 et 8/8, 3/8 le soir  
29/12/2012 12,7 6,9 9,30 9,80 9,33 12,5 5,99 3,4 5,8 12,6 7,0 9,80 97% 77% 86,7% 87,0% 9,7 5,4 7,17 43,30 20,48 SSE 62,8 WSW 25,76 2,8 0,8 36,0 1022,9 1014,4 1017,94 1018,65 8,5   Ciel entre 5/8 et 8/8, averses l'après-midi  
30/12/2012 12,7 6,3 9,52 9,50 9,56 12,6 7,13 4,3 6,4 12,7 6,4 9,55 95% 77% 86,4% 86,0% 10,0 5,3 7,35 29,32 15,16 W 45,1 W 18,35 3,4 0,7 24,0 1027,9 1021,4 1025,96 1024,65 6,5   Ciel entre 4/8 et 8/8, averses le matin  
31/12/2012 12,2 6,6 9,29 9,40 9,35 11,9 5,90 3,6 5,6 12,2 6,6 9,40 97% 71% 88,6% 84,0% 10,5 6,0 7,44 49,57 21,73 S 72,4 W 28,13 2,8 1,2 12,0 1026,7 1008,2 1017,50 1017,45 18,5   Ciel entre 5/8 et 8/8 le matin, 7/8 à 8/8 ensuite, pluie le soir  
  Température (°C) - Abri Young à ventilation mécanique 43502 Humidité Vent (km/h) Précipitations (mm) Pression (hPa) Divers  
  Maxi Mini Moy de 1440 relevés Moy (tx+tn)/2 Index chaleur moyen Index chaleur maxi Froid dû au vent moy  Froid dû au vent mini/1min   Amplitude (Tx-Tn) Tx OMM/1min Tn OMM/1min Tm OMM/1min Relative maxi Relative mini Relative moy de 1440 relevés Relative moy (hx+hn)/2 Point de rosée maxi Point de rosée mini Point de rosée moy 1440 relevés Vent moy maxi (10min) Vent  moyen (24h) Direction dominante Rafales (km/h) maxi Direction rafale maxi Rafales moy (24h) Total du jour (mm) Durée en heures et dixièmes Intensité maxi sur 1 min (mm/h) Maxi Mini Moy de 1440 relevés Moy (px+pn)/2 Variation Epaisseur neige (cm) Remarques diverses  
Maxi 15,7 8,8 11,86 11,40 12,03 15,6 9,70 5,8 10,9 15,7 8,8 11,45 99% 93% 96,4% 96,0% 13,2 7,9 11,16 53,75 31,08 WSW 80,5 WNW 38,27 16,0 5,2 72,0 1031,6 1025,9 1028,98 1028,10 18,5 0,0    
Mini 1,0 -4,9 -1,38 -1,95 -1,54 0,7 -3,32 -7,9 3,8 0,9 -4,8 -1,95 91% 55% 78,1% 75,5% -2,7 -6,6 -4,19 10,02 3,08   12,9   4,72       1001,1 993,8 996,77 997,45 1,9      
Moy 11,11 4,14 7,82 7,62 7,84 10,95 5,43 1,55 6,97 11,06 4,22 7,64 95,9% 75,6% 88,4% 85,8% 8,73 2,87 5,98 29,28 14,91   43,82   19,04       1021,33 1013,12 1017,25 1017,22 8,21      
Total                                                   136,8 40,9             0,0    
 
  Observations      
Jours Rafales >= 36,0 km/h Rafales >= 57,6 km/h Rafales >= 75,6 km/h Rafales >= 100,8 km/h Précipi. >= 0,1 mm Précipi. >= 1,0 mm Précipi. >= 5,0 mm Précipi. >= 10,0 mm Tx <= 0 Tx >= 25 Tx >= 30 Tx >= 35 Tx >= 40 Tn <= 0 Tn <= -5 Tn <= -10 Tn <= -15 T moy <= 0 T moy <=     -5 T moy >= 20 T moy >= 25 T moy >= 30 Grêle Grésil Brouillard Brume Orage Neige        
01/12/2012 0 0 0 0 1 0 0 0 0 0 0 0 0 1 0 0 0 0 0 0 0 0 0 0 1 0 0 0    
02/12/2012 0 0 0 0 1 1 0 0 0 0 0 0 0 1 0 0 0 0 0 0 0 0 0 0 1 0 0 0    
03/12/2012 1 1 0 0 1 1 1 0 0 0 0 0 0 0 0 0 0 0 0 0 0 0 0 0 0 0 0 0    
04/12/2012 1 0 0 0 1 1 1 0 0 0 0 0 0 0 0 0 0 0 0 0 0 0 1 0 0 0 0 0    
05/12/2012 1 0 0 0 1 1 0 0 0 0 0 0 0 0 0 0 0 0 0 0 0 0 0 0 0 0 0 0    
06/12/2012 0 0 0 0 1 0 0 0 0 0 0 0 0 1 0 0 0 0 0 0 0 0 0 0 1 0 0 0    
07/12/2012 1 0 0 0 1 1 0 0 0 0 0 0 0 0 0 0 0 0 0 0 0 0 0 0 0 0 0 0    
08/12/2012 0 0 0 0 0 0 0 0 0 0 0 0 0 1 0 0 0 0 0 0 0 0 0 0 0 0 0 0    
09/12/2012 0 0 0 0 1 0 0 0 0 0 0 0 0 1 0 0 0 0 0 0 0 0 0 0 0 0 0 0    
10/12/2012 0 0 0 0 1 1 0 0 0 0 0 0 0 1 0 0 0 0 0 0 0 0 0 0 0 0 0 0    
11/12/2012 0 0 0 0 1 0 0 0 0 0 0 0 0 1 0 0 0 0 0 0 0 0 0 0 0 0 0 0    
12/12/2012 0 0 0 0 0 0 0 0 0 0 0 0 0 1 0 0 0 1 0 0 0 0 0 0 0 0 0 0    
13/12/2012 1 0 0 0 1 1 1 1 0 0 0 0 0 0 0 0 0 0 0 0 0 0 0 0 0 0 0 0    
14/12/2012 1 1 0 0 1 1 1 1 0 0 0 0 0 0 0 0 0 0 0 0 0 0 0 0 0 0 0 0    
15/12/2012 1 1 0 0 1 1 1 0 0 0 0 0 0 0 0 0 0 0 0 0 0 0 1 0 0 0 1 0    
16/12/2012 1 1 0 0 1 1 1 1 0 0 0 0 0 0 0 0 0 0 0 0 0 0 1 0 0 0 1 0    
17/12/2012 1 0 0 0 1 1 1 0 0 0 0 0 0 0 0 0 0 0 0 0 0 0 1 0 0 0 0 0    
18/12/2012 0 0 0 0 1 0 0 0 0 0 0 0 0 0 0 0 0 0 0 0 0 0 0 0 0 0 0 0    
19/12/2012 0 0 0 0 1 1 0 0 0 0 0 0 0 0 0 0 0 0 0 0 0 0 0 0 1 0 0 0    
20/12/2012 1 0 0 0 1 1 0 0 0 0 0 0 0 0 0 0 0 0 0 0 0 0 0 0 0 0 0 0    
21/12/2012 0 0 0 0 1 1 1 1 0 0 0 0 0 0 0 0 0 0 0 0 0 0 0 0 0 0 0 0    
22/12/2012 1 0 0 0 1 1 0 0 0 0 0 0 0 0 0 0 0 0 0 0 0 0 0 0 0 0 0 0    
23/12/2012 0 0 0 0 1 0 0 0 0 0 0 0 0 0 0 0 0 0 0 0 0 0 0 0 1 0 0 0    
24/12/2012 1 0 0 0 1 0 0 0 0 0 0 0 0 0 0 0 0 0 0 0 0 0 0 0 0 0 0 0    
25/12/2012 1 1 0 0 1 1 0 0 0 0 0 0 0 0 0 0 0 0 0 0 0 0 0 0 0 0 0 0    
26/12/2012 1 0 0 0 1 1 0 0 0 0 0 0 0 0 0 0 0 0 0 0 0 0 0 0 0 0 0 0    
27/12/2012 1 1 1 0 1 1 1 0 0 0 0 0 0 0 0 0 0 0 0 0 0 0 0 0 0 0 0 0    
28/12/2012 0 0 0 0 1 0 0 0 0 0 0 0 0 0 0 0 0 0 0 0 0 0 0 0 0 0 0 0    
29/12/2012 1 1 0 0 1 1 0 0 0 0 0 0 0 0 0 0 0 0 0 0 0 0 0 0 0 0 0 0    
30/12/2012 1 0 0 0 1 1 0 0 0 0 0 0 0 0 0 0 0 0 0 0 0 0 0 0 0 0 0 0    
31/12/2012 1 1 0 0 1 1 0 0 0 0 0 0 0 0 0 0 0 0 0 0 0 0 0 0 0 0 0 0    
   
  Rafales >= 36,0 km/h Rafales >= 57,6 km/h Rafales >= 75,6 km/h Rafales >= 100,8 km/h Précipi. >= 0,1 mm Précipi. >= 1,0 mm Précipi. >= 5,0 mm Précipi. >= 10,0 mm Tx <=0 Tx >= 25 Tx >= 30 Tx >= 35 Tx >= 40 Tn <= 0 Tn <= -5 Tn <= -10 Tn <= -15 T moy <= 0 T moy <=  -5 T moy >= 20 T moy >= 25 T moy >= 30 Grêle Grésil Brouillard Brume Orage Neige        
Total 18 8 1 0 29 21 9 4 0 0 0 0 0 8 0 0 0 1 0 0 0 0 4 0 5 0 2 0